Terminal Aerodrome Forecast
Issued by NWS

Home | Current Version | Previous Version | Text Only | Print | Product List | Glossary On
Versions: 1 2 3 4 5 6 7 8 9 10 11 12 13 14 15 16
134
FTUS42 KILM 082320
TAFCRE
TAF
KCRE 082320Z 0900/0924 23013KT P6SM BKN100
      TEMPO 0900/0902 6SM -SHRA BKN040 OVC080
     FM090200 26010G15KT P6SM BKN060
     FM090600 25012G20KT P6SM SCT250
     FM091900 26018G26KT P6SM OVC050=

USA.gov is the U.S. government's official web portal to all federal, state and local government web resources and services.